This is the latest recevied weather packets stored in our database for station/object EA5CEE. If no packets are shown the sender has not sent any weather packets the latest 10 day(s).
| Time | Temp. | Humidity | Pressure | Rain* | Wind** | Luminosity | Snow |
|---|---|---|---|---|---|---|---|
| 1777374062 | 17.22° C | 81% | 1011.8 hPa | 0 mm | - | - | - |
| 1777373148 | 17.78° C | 72% | 1012.7 hPa | 0 mm | - | - | - |
| 1777372248 | 18.89° C | 65% | 1013.3 hPa | 0 mm | - | - | - |
| 1777371347 | 19.44° C | 61% | 1013.7 hPa | 0 mm | - | - | - |
| 1777370473 | 18.89° C | 58% | 1013.6 hPa | 0 mm | - | - | - |
| 1777369546 | 19.44° C | 53% | 1013.3 hPa | 0 mm | - | - | - |
| 1777368655 | 20° C | 50% | 1013 hPa | 0 mm | - | - | - |
| 1777367753 | 19.44° C | 49% | 1013 hPa | 0 mm | - | - | - |
| 1777366837 | 18.33° C | 65% | 1012.9 hPa | 0 mm | - | - | - |
| 1777365935 | 18.33° C | 62% | 1011.6 hPa | 0 mm | - | - | - |
| 1777365034 | 18.33° C | 62% | 1011.4 hPa | 0 mm | - | - | - |
| 1777364131 | 17.78° C | 67% | 1012 hPa | 0 mm | - | - | - |
| 1777363225 | 16.67° C | 77% | 1012.4 hPa | 0 mm | - | - | - |
| 1777362329 | 16.67° C | 77% | 1012.8 hPa | 0 mm | - | - | - |
| 1777361423 | 16.11° C | 77% | 1012.8 hPa | 0 mm | - | - | - |
| 1777360522 | 15.56° C | 77% | 1012.7 hPa | 0 mm | - | - | - |
| 1777359620 | 15° C | 77% | 1013 hPa | 0 mm | - | - | - |
| 1777358716 | 14.44° C | 82% | 1013.1 hPa | 0 mm | - | - | - |
| 1777357816 | 14.44° C | 83% | 1012.9 hPa | 0 mm | - | - | - |
| 1777356910 | 15° C | 83% | 1012.7 hPa | 0 mm | - | - | - |
| 1777356008 | 15° C | 84% | 1012.3 hPa | 0 mm | - | - | - |
| 1777355115 | 15.56° C | 84% | 1012.3 hPa | 0 mm | - | - | - |
| 1777354213 | 15.56° C | 85% | 1012.1 hPa | 0 mm | - | - | - |
| 1777353305 | 15.56° C | 85% | 1012 hPa | 0 mm | - | - | - |
| 1777352404 | 15.56° C | 86% | 1012 hPa | 0 mm | - | - | - |
* Rain latest hour (hover to see other rain measurements)
** Current wind speed in m/s (hover to see current wind gust speed)